Olympic Champion — SYWD — position and weather

sailwx.info

Track history (hours):
 
Tides and Currents Weather Stations Pressure Air Temp Water Temp Dewpoint Dewpoint Depression Visibility Wind Speed Wind Dir Waves Ship Positions

Olympic Champion

Last reported at 2017-Jun-25 20:44 UTC. Time now 2017-Jun-26 18:59 UTC.
Position N 42°35' E 015°22'.

Length 204 m; draft 6.5 m.

Type: Ship. MMSI: 237280000.

Date/timePositionNaut miles runAvg speedWind from/ knotsBaromVisibWave heightAir tempDewpointWater temp
2017-Jun-25 20:44N 42°35' E 015°22'522.6
2017-Jun-25 20:31N 42°38' E 015°16'1222.8
2017-Jun-25 20:00N 42°45' E 015°04'1122.8
2017-Jun-25 19:30N 42°52' E 014°53'1222.9
2017-Jun-25 19:00N 43°02' E 014°44'1222.6
2017-Jun-25 18:29N 43°11' E 014°34'1122.7
2017-Jun-25 18:00N 43°19' E 014°23'1122.7
2017-Jun-25 17:31N 43°28' E 014°15'1122.5
2017-Jun-25 17:00N 43°37' E 014°04'1122.5
2017-Jun-25 16:30N 43°45' E 013°54'1122.6
2017-Jun-25 16:00N 43°53' E 013°42'1122.5
2017-Jun-25 15:30N 44°00' E 013°31'1122.4
2017-Jun-25 15:00N 44°08' E 013°20'2222.0
2017-Jun-25 14:00N 44°28' E 013°06'1122.6
2017-Jun-25 13:30N 44°38' E 013°00'1122.5
2017-Jun-25 13:01N 44°49' E 012°55'1223.4
2017-Jun-25 12:31N 44°59' E 012°47'1122.2
2017-Jun-25 12:00N 45°08' E 012°38'1121.0
2017-Jun-25 11:30N 45°16' E 012°28'815.7
2017-Jun-25 11:00N 45°20' E 012°18'4 8.3
2017-Jun-25 10:30N 45°24' E 012°16'1 2.7
2017-Jun-25 09:57N 45°25' E 012°15'0 0.0
2017-Jun-25 09:30N 45°25' E 012°15'0 0.0
2017-Jun-25 09:00N 45°25' E 012°15'0 0.0
2017-Jun-25 08:30N 45°25' E 012°15'0 0.0
2017-Jun-25 07:54N 45°25' E 012°15'0 0.0
2017-Jun-25 07:09N 45°25' E 012°15'0 0.0
2017-Jun-25 06:54N 45°25' E 012°15'0 0.0
2017-Jun-25 06:27N 45°25' E 012°15'0 0.0
2017-Jun-25 05:51N 45°25' E 012°15'0 0.0
2017-Jun-25 05:30N 45°25' E 012°15'0 0.7
2017-Jun-25 05:00N 45°25' E 012°16'4 8.8
2017-Jun-25 04:30N 45°21' E 012°16'5 9.8
2017-Jun-25 04:00N 45°19' E 012°23'612.2
2017-Jun-25 03:30N 45°17' E 012°31'714.2
2017-Jun-25 03:01N 45°12' E 012°38'918.3
2017-Jun-25 02:31N 45°08' E 012°50'1020.6
2017-Jun-25 02:01N 45°03' E 013°03'1121.4
2017-Jun-25 01:30N 44°58' E 013°16'1020.7
2017-Jun-25 01:00N 44°51' E 013°27'1121.3
2017-Jun-25 00:31N 44°42' E 013°35'1121.3
2017-Jun-25 00:00N 44°34' E 013°44'1020.9
2017-Jun-24 23:31N 44°25' E 013°52'1020.9
2017-Jun-24 23:01N 44°16' E 013°60'1121.2
2017-Jun-24 22:30N 44°07' E 014°07'8121.4
2017-Jun-24 18:43N 43°13' E 015°32'721.5
2017-Jun-24 18:24N 43°09' E 015°39'9221.5
2017-Jun-24 14:07N 42°02' E 017°05'2821.6
2017-Jun-24 12:50N 41°42' E 017°30'821.6
2017-Jun-24 12:29N 41°36' E 017°37'96 2.2
2017-Jun-22 17:31N 42°23' E 015°45'023.4
2017-Jun-22 17:30N 42°23' E 015°45'1223.9
2017-Jun-22 17:00N 42°31' E 015°32'1923.6
2017-Jun-22 16:12N 42°44' E 015°13'723.7
2017-Jun-22 15:55N 42°48' E 015°07'1223.6
2017-Jun-22 15:24N 42°56' E 014°54'923.6
2017-Jun-22 15:00N 43°03' E 014°45'1923.5
2017-Jun-22 14:13N 43°15' E 014°26'2823.8
2017-Jun-22 13:03N 43°34' E 013°58'523.4
2017-Jun-22 12:51N 43°37' E 013°53'919.4
2017-Jun-22 12:24N 43°41' E 013°42'718.0
2017-Jun-22 12:00N 43°39' E 013°33'3 0.1
2017-Jun-21 14:50N 43°37' E 013°30'1 4.6
2017-Jun-21 14:30N 43°38' E 013°29'1515.4
2017-Jun-21 13:31N 43°41' E 013°50'1326.0
2017-Jun-21 13:00N 43°33' E 014°05'1325.8
2017-Jun-21 12:30N 43°26' E 014°20'1625.7
2017-Jun-21 11:52N 43°16' E 014°38'1025.5
2017-Jun-21 11:29N 43°11' E 014°50'3226.0
2017-Jun-21 10:15N 42°53' E 015°26'1026.0
2017-Jun-21 09:51N 42°47' E 015°37'1225.9
2017-Jun-21 09:22N 42°40' E 015°51'1025.8
2017-Jun-21 08:59N 42°34' E 016°02'2126.1
2017-Jun-21 08:11N 42°22' E 016°25'625.8
2017-Jun-21 07:57N 42°18' E 016°31'  
2017-Jun-18 15:04N 44°06' E 013°23'122.8
2017-Jun-18 15:00N 44°07' E 013°21'2222.0
2017-Jun-18 14:00N 44°26' E 013°07'1122.7
2017-Jun-18 13:30N 44°37' E 013°01'1122.7
2017-Jun-18 13:00N 44°48' E 012°55'1223.0
2017-Jun-18 12:30N 44°58' E 012°48'1122.7
2017-Jun-18 12:00N 45°08' E 012°40'1121.2
2017-Jun-18 11:30N 45°15' E 012°29'917.3
2017-Jun-18 11:00N 45°20' E 012°19'4 7.2
2017-Jun-18 10:30N 45°23' E 012°16'3 5.3
2017-Jun-18 10:00N 45°25' E 012°15'0 0.0
2017-Jun-18 09:28N 45°25' E 012°15'0 0.0
2017-Jun-18 08:58N 45°25' E 012°15'0 0.0
2017-Jun-18 08:28N 45°25' E 012°15'0 0.0
2017-Jun-18 07:55N 45°25' E 012°15'0 0.0
2017-Jun-18 07:25N 45°25' E 012°15'0 0.0
2017-Jun-18 06:58N 45°25' E 012°15'0 0.0
2017-Jun-18 06:28N 45°25' E 012°15'0 0.0
2017-Jun-18 05:58N 45°25' E 012°15'0 0.0
2017-Jun-18 05:22N 45°25' E 012°15'0 0.5
2017-Jun-18 05:00N 45°25' E 012°16'4 8.6
2017-Jun-18 04:30N 45°21' E 012°16'5 9.7
2017-Jun-18 04:00N 45°20' E 012°22'714.4
2017-Jun-18 03:30N 45°17' E 012°32'917.4
2017-Jun-18 03:00N 45°12' E 012°42'1019.2
2017-Jun-18 02:30N 45°07' E 012°54'1020.7
2017-Jun-18 02:00N 45°02' E 013°07'1122.5
2017-Jun-18 01:30N 44°56' E 013°20'1122.5
2017-Jun-18 01:01N 44°48' E 013°31'1122.6
2017-Jun-18 00:30N 44°38' E 013°40'1122.3
2017-Jun-18 00:00N 44°29' E 013°48'1121.9
2017-Jun-17 23:30N 44°20' E 013°56'  
Track history (hours):
 
Tides and Currents Weather Stations Pressure Air Temp Water Temp Dewpoint Dewpoint Depression Visibility Wind Speed Wind Dir Waves Ship Positions

Olympic Champion

Last reported at 2017-Jun-25 20:44 UTC. Time now 2017-Jun-26 18:59 UTC.
Position N 42°35' E 015°22'.

Length 204 m; draft 6.5 m.

Type: Ship. MMSI: 237280000.

Date/timePositionNaut miles runAvg speedWind from/ knotsBaromVisibWave heightAir tempDewpointWater temp
2017-Jun-25 20:44N 42°35' E 015°22'522.6
2017-Jun-25 20:31N 42°38' E 015°16'1222.8
2017-Jun-25 20:00N 42°45' E 015°04'1122.8
2017-Jun-25 19:30N 42°52' E 014°53'1222.9
2017-Jun-25 19:00N 43°02' E 014°44'1222.6
2017-Jun-25 18:29N 43°11' E 014°34'1122.7
2017-Jun-25 18:00N 43°19' E 014°23'1122.7
2017-Jun-25 17:31N 43°28' E 014°15'1122.5
2017-Jun-25 17:00N 43°37' E 014°04'1122.5
2017-Jun-25 16:30N 43°45' E 013°54'1122.6
2017-Jun-25 16:00N 43°53' E 013°42'1122.5
2017-Jun-25 15:30N 44°00' E 013°31'1122.4
2017-Jun-25 15:00N 44°08' E 013°20'2222.0
2017-Jun-25 14:00N 44°28' E 013°06'1122.6
2017-Jun-25 13:30N 44°38' E 013°00'1122.5
2017-Jun-25 13:01N 44°49' E 012°55'1223.4
2017-Jun-25 12:31N 44°59' E 012°47'1122.2
2017-Jun-25 12:00N 45°08' E 012°38'1121.0
2017-Jun-25 11:30N 45°16' E 012°28'815.7
2017-Jun-25 11:00N 45°20' E 012°18'4 8.3
2017-Jun-25 10:30N 45°24' E 012°16'1 2.7
2017-Jun-25 09:57N 45°25' E 012°15'0 0.0
2017-Jun-25 09:30N 45°25' E 012°15'0 0.0
2017-Jun-25 09:00N 45°25' E 012°15'0 0.0
2017-Jun-25 08:30N 45°25' E 012°15'0 0.0
2017-Jun-25 07:54N 45°25' E 012°15'0 0.0
2017-Jun-25 07:09N 45°25' E 012°15'0 0.0
2017-Jun-25 06:54N 45°25' E 012°15'0 0.0
2017-Jun-25 06:27N 45°25' E 012°15'0 0.0
2017-Jun-25 05:51N 45°25' E 012°15'0 0.0
2017-Jun-25 05:30N 45°25' E 012°15'0 0.7
2017-Jun-25 05:00N 45°25' E 012°16'4 8.8
2017-Jun-25 04:30N 45°21' E 012°16'5 9.8
2017-Jun-25 04:00N 45°19' E 012°23'612.2
2017-Jun-25 03:30N 45°17' E 012°31'714.2
2017-Jun-25 03:01N 45°12' E 012°38'918.3
2017-Jun-25 02:31N 45°08' E 012°50'1020.6
2017-Jun-25 02:01N 45°03' E 013°03'1121.4
2017-Jun-25 01:30N 44°58' E 013°16'1020.7
2017-Jun-25 01:00N 44°51' E 013°27'1121.3
2017-Jun-25 00:31N 44°42' E 013°35'1121.3
2017-Jun-25 00:00N 44°34' E 013°44'1020.9
2017-Jun-24 23:31N 44°25' E 013°52'1020.9
2017-Jun-24 23:01N 44°16' E 013°60'1121.2
2017-Jun-24 22:30N 44°07' E 014°07'8121.4
2017-Jun-24 18:43N 43°13' E 015°32'721.5
2017-Jun-24 18:24N 43°09' E 015°39'9221.5
2017-Jun-24 14:07N 42°02' E 017°05'2821.6
2017-Jun-24 12:50N 41°42' E 017°30'821.6
2017-Jun-24 12:29N 41°36' E 017°37'96 2.2
2017-Jun-22 17:31N 42°23' E 015°45'023.4
2017-Jun-22 17:30N 42°23' E 015°45'1223.9
2017-Jun-22 17:00N 42°31' E 015°32'1923.6
2017-Jun-22 16:12N 42°44' E 015°13'723.7
2017-Jun-22 15:55N 42°48' E 015°07'1223.6
2017-Jun-22 15:24N 42°56' E 014°54'923.6
2017-Jun-22 15:00N 43°03' E 014°45'1923.5
2017-Jun-22 14:13N 43°15' E 014°26'2823.8
2017-Jun-22 13:03N 43°34' E 013°58'523.4
2017-Jun-22 12:51N 43°37' E 013°53'919.4
2017-Jun-22 12:24N 43°41' E 013°42'718.0
2017-Jun-22 12:00N 43°39' E 013°33'3 0.1
2017-Jun-21 14:50N 43°37' E 013°30'1 4.6
2017-Jun-21 14:30N 43°38' E 013°29'1515.4
2017-Jun-21 13:31N 43°41' E 013°50'1326.0
2017-Jun-21 13:00N 43°33' E 014°05'1325.8
2017-Jun-21 12:30N 43°26' E 014°20'1625.7
2017-Jun-21 11:52N 43°16' E 014°38'1025.5
2017-Jun-21 11:29N 43°11' E 014°50'3226.0
2017-Jun-21 10:15N 42°53' E 015°26'1026.0
2017-Jun-21 09:51N 42°47' E 015°37'1225.9
2017-Jun-21 09:22N 42°40' E 015°51'1025.8
2017-Jun-21 08:59N 42°34' E 016°02'2126.1
2017-Jun-21 08:11N 42°22' E 016°25'625.8
2017-Jun-21 07:57N 42°18' E 016°31'  
2017-Jun-18 15:04N 44°06' E 013°23'122.8
2017-Jun-18 15:00N 44°07' E 013°21'2222.0
2017-Jun-18 14:00N 44°26' E 013°07'1122.7
2017-Jun-18 13:30N 44°37' E 013°01'1122.7
2017-Jun-18 13:00N 44°48' E 012°55'1223.0
2017-Jun-18 12:30N 44°58' E 012°48'1122.7
2017-Jun-18 12:00N 45°08' E 012°40'1121.2
2017-Jun-18 11:30N 45°15' E 012°29'917.3
2017-Jun-18 11:00N 45°20' E 012°19'4 7.2
2017-Jun-18 10:30N 45°23' E 012°16'3 5.3
2017-Jun-18 10:00N 45°25' E 012°15'0 0.0
2017-Jun-18 09:28N 45°25' E 012°15'0 0.0
2017-Jun-18 08:58N 45°25' E 012°15'0 0.0
2017-Jun-18 08:28N 45°25' E 012°15'0 0.0
2017-Jun-18 07:55N 45°25' E 012°15'0 0.0
2017-Jun-18 07:25N 45°25' E 012°15'0 0.0
2017-Jun-18 06:58N 45°25' E 012°15'0 0.0
2017-Jun-18 06:28N 45°25' E 012°15'0 0.0
2017-Jun-18 05:58N 45°25' E 012°15'0 0.0
2017-Jun-18 05:22N 45°25' E 012°15'0 0.5
2017-Jun-18 05:00N 45°25' E 012°16'4 8.6
2017-Jun-18 04:30N 45°21' E 012°16'5 9.7
2017-Jun-18 04:00N 45°20' E 012°22'714.4
2017-Jun-18 03:30N 45°17' E 012°32'917.4
2017-Jun-18 03:00N 45°12' E 012°42'1019.2
2017-Jun-18 02:30N 45°07' E 012°54'1020.7
2017-Jun-18 02:00N 45°02' E 013°07'1122.5
2017-Jun-18 01:30N 44°56' E 013°20'1122.5
2017-Jun-18 01:01N 44°48' E 013°31'1122.6
2017-Jun-18 00:30N 44°38' E 013°40'1122.3
2017-Jun-18 00:00N 44°29' E 013°48'1121.9
2017-Jun-17 23:30N 44°20' E 013°56'  

Dump ship's entire track history